Time;durP1;ratioP1;P1;durP2;ratioP2;P2;SDS_P1;SDS_P2;PMS_P1;PMS_P2;Temp;Humidity;BMP_temperature;BMP_pressure;BME280_temperature;BME280_humidity;BME280_pressure;Samples;Min_cycle;Max_cycle;Signal;HPM_P1;HPM_P2
2023/06/06 05:27:40;;;;;;;20.43;13.47;;;;;;;;;;5136286;27;20760;-81
2023/06/06 05:38:06;;;;;;;15.90;11.63;;;12.50;99.90;;;;;;5139259;27;20759;-81
2023/06/06 05:44:35;;;;;;;17.70;12.20;;;;;;;;;;5136383;27;20275;-81
2023/06/06 05:49:29;;;;;;;19.03;12.77;;;12.80;99.90;;;;;;5136934;27;20832;-81
2023/06/06 05:54:41;;;;;;;17.17;12.50;;;13.20;99.90;;;;;;5157573;27;20267;-81
2023/06/06 05:59:53;;;;;;;16.00;11.67;;;13.20;99.90;;;;;;5139274;27;20267;-81
2023/06/06 06:06:09;;;;;;;16.43;12.07;;;;;;;;;;5138929;27;20275;-81
2023/06/06 06:12:48;;;;;;;17.57;12.47;;;13.30;99.90;;;;;;5136849;27;20267;-80
2023/06/06 06:17:41;;;;;;;14.23;11.10;;;;;;;;;;5137316;27;20294;-80
2023/06/06 06:21:59;;;;;;;13.57;10.87;;;;;;;;;;5137072;27;20630;-81
2023/06/06 06:26:13;;;;;;;14.27;9.80;;;13.40;99.90;;;;;;5116817;27;20273;-80
2023/06/06 06:30:04;;;;;;;13.20;10.13;;;13.60;99.90;;;;;;5137591;27;20267;-81
2023/06/06 06:32:34;;;;;;;13.27;9.63;;;13.70;99.90;;;;;;5118086;28;20295;-81
2023/06/06 06:35:01;;;;;;;11.93;9.37;;;13.80;99.90;;;;;;5118686;28;20171;-81
2023/06/06 06:40:15;;;;;;;11.93;9.37;;;13.80;99.90;;;;;;5145464;27;20271;-80
2023/06/06 06:44:10;;;;;;;11.37;9.70;;;;;;;;;;5137207;27;20275;-81
2023/06/06 06:46:36;;;;;;;10.60;9.33;;;13.70;99.90;;;;;;5118075;28;20262;-80
2023/06/06 06:49:01;;;;;;;11.00;9.60;;;13.80;99.90;;;;;;5136910;28;20237;-80
2023/06/06 06:51:27;;;;;;;12.07;9.90;;;13.90;99.90;;;;;;5137486;27;20163;-80
2023/06/06 06:53:53;;;;;;;11.37;9.37;;;14.20;99.90;;;;;;5137647;27;20167;-81
2023/06/06 06:56:19;;;;;;;11.67;9.53;;;14.40;99.90;;;;;;5136290;27;20575;-81
2023/06/06 06:58:44;;;;;;;11.10;10.03;;;14.70;99.90;;;;;;5135584;28;20195;-81
2023/06/06 07:01:10;;;;;;;10.47;9.40;;;14.90;99.90;;;;;;5137140;27;20181;-81
2023/06/06 07:03:36;;;;;;;9.57;8.57;;;15.10;99.90;;;;;;5135544;28;20576;-81
2023/06/06 07:06:05;;;;;;;10.30;9.03;;;15.30;99.90;;;;;;5135965;28;20211;-81
2023/06/06 07:08:32;;;;;;;9.33;8.40;;;15.40;99.90;;;;;;5135451;28;20748;-81
2023/06/06 07:10:58;;;;;;;9.53;8.63;;;15.50;99.90;;;;;;5135443;28;20174;-81
2023/06/06 07:13:24;;;;;;;10.50;8.47;;;15.60;99.90;;;;;;5135888;27;20172;-80
2023/06/06 07:15:49;;;;;;;9.13;7.63;;;15.50;99.90;;;;;;5134573;28;20180;-81
2023/06/06 07:18:15;;;;;;;9.43;8.50;;;15.50;99.90;;;;;;5134565;28;20199;-81
2023/06/06 07:20:41;;;;;;;8.80;7.90;;;15.60;99.90;;;;;;5135566;28;20194;-81
2023/06/06 07:23:07;;;;;;;10.13;8.03;;;15.60;99.90;;;;;;5136902;27;20269;-81
2023/06/06 07:25:33;;;;;;;8.70;7.90;;;;;;;;;;5137380;27;20535;-81
2023/06/06 07:27:59;;;;;;;8.40;7.60;;;15.90;99.90;;;;;;5136225;28;20195;-81
2023/06/06 07:30:25;;;;;;;14.53;7.70;;;15.80;99.90;;;;;;5137165;27;20177;-82
2023/06/06 07:32:51;;;;;;;8.63;7.83;;;15.80;99.90;;;;;;5137577;27;20267;-82
2023/06/06 07:35:19;;;;;;;8.27;7.43;;;15.80;99.90;;;;;;5135341;28;20187;-81
2023/06/06 07:37:45;;;;;;;8.87;7.97;;;15.90;99.90;;;;;;5135958;28;20197;-81
2023/06/06 07:40:11;;;;;;;9.20;7.90;;;16.00;99.90;;;;;;5136467;28;20215;-82
2023/06/06 07:42:39;;;;;;;8.30;7.50;;;16.20;99.90;;;;;;5135281;28;20218;-82
2023/06/06 07:45:05;;;;;;;7.37;6.67;;;16.30;99.90;;;;;;5135975;28;20177;-82
2023/06/06 07:47:31;;;;;;;7.53;6.83;;;;;;;;;;5135250;28;20205;-82
2023/06/06 07:49:56;;;;;;;5.50;5.00;;;16.30;99.90;;;;;;5135834;28;20184;-82
2023/06/06 07:52:22;;;;;;;6.67;5.77;;;16.40;99.90;;;;;;5136121;28;20181;-82
2023/06/06 07:54:48;;;;;;;5.87;5.37;;;16.50;99.90;;;;;;5127909;27;20529;-82
2023/06/06 07:57:16;;;;;;;7.13;4.63;;;16.30;99.90;;;;;;5122314;28;20689;-81
2023/06/06 07:59:43;;;;;;;9.67;5.50;;;16.30;99.90;;;;;;5124813;27;20169;-82
2023/06/06 08:02:10;;;;;;;5.80;5.20;;;16.40;99.90;;;;;;5122252;28;20200;-82
2023/06/06 08:04:36;;;;;;;5.47;4.97;;;16.50;99.90;;;;;;5124424;28;20164;-82
2023/06/06 08:07:04;;;;;;;6.40;5.80;;;16.60;99.90;;;;;;5122763;28;20220;-83
2023/06/06 08:09:31;;;;;;;5.43;4.93;;;16.60;99.90;;;;;;5124454;28;20180;-82
2023/06/06 08:11:56;;;;;;;6.37;4.50;;;16.70;99.90;;;;;;5124704;28;20180;-82
2023/06/06 08:14:22;;;;;;;10.43;5.10;;;16.80;99.90;;;;;;5125695;28;20246;-82
2023/06/06 08:16:48;;;;;;;6.87;4.90;;;17.00;99.90;;;;;;5123335;28;20182;-82
2023/06/06 08:19:14;;;;;;;4.60;4.10;;;17.20;99.90;;;;;;5126289;28;20241;-82
2023/06/06 08:21:40;;;;;;;6.83;4.53;;;17.20;99.90;;;;;;5127479;28;20211;-82
2023/06/06 08:24:05;;;;;;;9.07;3.90;;;17.30;99.90;;;;;;5121445;28;20693;-82
2023/06/06 08:26:32;;;;;;;6.53;4.20;;;17.40;99.90;;;;;;5121882;28;20542;-82
2023/06/06 08:28:57;;;;;;;4.80;4.40;;;17.70;99.90;;;;;;5120747;28;20196;-82
2023/06/06 08:31:23;;;;;;;5.30;4.57;;;17.90;99.90;;;;;;5120403;28;20182;-82
2023/06/06 08:33:49;;;;;;;5.20;4.70;;;18.10;99.90;;;;;;5120464;28;20176;-82
2023/06/06 08:36:15;;;;;;;6.50;4.20;;;18.20;99.90;;;;;;5120438;28;20180;-82
2023/06/06 08:38:43;;;;;;;5.47;4.60;;;18.30;99.90;;;;;;5120766;28;20199;-82
2023/06/06 08:41:11;;;;;;;5.20;4.63;;;18.40;99.90;;;;;;5120838;28;20182;-82
2023/06/06 08:43:39;;;;;;;4.57;3.93;;;18.50;99.90;;;;;;5121162;28;20263;-82
2023/06/06 08:46:05;;;;;;;7.13;4.60;;;18.70;99.90;;;;;;5121771;28;20258;-82
2023/06/06 08:48:34;;;;;;;5.10;4.60;;;18.90;99.90;;;;;;5122669;28;20241;-82
2023/06/06 08:51:04;;;;;;;4.93;4.20;;;19.00;99.90;;;;;;5121827;28;20175;-82
2023/06/06 08:53:33;;;;;;;6.20;4.40;;;19.00;99.90;;;;;;5123361;28;20175;-82
2023/06/06 08:56:00;;;;;;;4.03;3.63;;;19.00;99.90;;;;;;5123197;28;20190;-82
2023/06/06 08:58:29;;;;;;;5.80;3.37;;;19.10;99.90;;;;;;5123626;28;20317;-82
2023/06/06 09:00:59;;;;;;;5.43;3.60;;;19.40;99.90;;;;;;5121641;28;20690;-82
2023/06/06 09:03:31;;;;;;;7.90;4.10;;;19.60;99.90;;;;;;5121339;28;20564;-82
2023/06/06 09:06:00;;;;;;;7.53;4.33;;;19.90;99.90;;;;;;5122510;28;20161;-82
2023/06/06 09:08:26;;;;;;;4.97;4.10;;;20.20;99.90;;;;;;5123244;28;20195;-82
2023/06/06 09:10:51;;;;;;;7.43;4.43;;;20.40;99.90;;;;;;5121613;28;20196;-82
2023/06/06 09:13:17;;;;;;;5.67;4.40;;;20.10;99.90;;;;;;5122764;28;20534;-82
2023/06/06 09:15:46;;;;;;;6.17;4.10;;;20.20;99.90;;;;;;5122078;28;20196;-82
2023/06/06 09:18:13;;;;;;;4.87;3.87;;;20.50;99.90;;;;;;5122756;28;20219;-82
2023/06/06 09:20:40;;;;;;;7.87;4.07;;;20.50;99.90;;;;;;5122474;28;20178;-82
2023/06/06 09:23:12;;;;;;;3.40;3.00;;;20.50;99.90;;;;;;5123651;28;20201;-83
2023/06/06 09:25:47;;;;;;;3.43;3.10;;;20.70;99.90;;;;;;5121291;28;20562;-83
2023/06/06 09:28:13;;;;;;;3.60;2.90;;;20.80;99.90;;;;;;5122177;28;20198;-82
2023/06/06 09:30:39;;;;;;;5.23;2.93;;;21.00;99.90;;;;;;5123538;28;20222;-82
2023/06/06 09:33:05;;;;;;;6.47;3.50;;;21.20;99.90;;;;;;5123703;28;20171;-83
2023/06/06 09:35:35;;;;;;;3.83;3.30;;;21.30;99.90;;;;;;5122199;28;20207;-83
2023/06/06 09:38:17;;;;;;;3.77;3.13;;;21.40;99.90;;;;;;5123946;28;20240;-83
2023/06/06 09:40:52;;;;;;;4.17;3.20;;;21.70;99.90;;;;;;5121484;28;20183;-83
2023/06/06 09:43:26;;;;;;;4.10;3.23;;;22.00;99.90;;;;;;5123973;28;20287;-83
2023/06/06 09:45:55;;;;;;;6.20;3.27;;;22.10;99.90;;;;;;5121780;28;20167;-83
2023/06/06 09:48:28;;;;;;;4.30;3.43;;;22.10;99.90;;;;;;5122289;28;20199;-83
2023/06/06 09:50:55;;;;;;;4.40;3.60;;;22.20;99.90;;;;;;5121599;28;20172;-83
2023/06/06 09:53:28;;;;;;;3.83;3.30;;;22.40;99.90;;;;;;5121919;28;20181;-83
2023/06/06 09:55:57;;;;;;;4.63;3.20;;;22.70;99.90;;;;;;5124463;28;20181;-83
2023/06/06 09:58:25;;;;;;;6.27;2.90;;;22.70;99.90;;;;;;5128083;28;20192;-84
2023/06/06 10:00:53;;;;;;;3.20;2.90;;;22.90;99.90;;;;;;5125440;28;20178;-83
2023/06/06 10:03:21;;;;;;;5.43;3.07;;;22.90;99.90;;;;;;5120974;28;20195;-83
2023/06/06 10:05:48;;;;;;;3.97;3.17;;;23.20;99.90;;;;;;5119955;28;20233;-85
2023/06/06 10:08:17;;;;;;;8.27;3.13;;;23.20;99.90;;;;;;5118010;28;20230;-83
2023/06/06 10:10:45;;;;;;;5.13;3.30;;;23.30;99.90;;;;;;5121272;28;20187;-84
2023/06/06 10:13:12;;;;;;;5.13;3.30;;;23.30;99.90;;;;;;5120730;28;20182;-82
2023/06/06 10:15:39;;;;;;;3.80;3.30;;;23.30;99.90;;;;;;5121372;28;20176;-82
2023/06/06 10:18:05;;;;;;;5.67;3.53;;;23.40;99.90;;;;;;5119630;28;20192;-81
2023/06/06 10:20:32;;;;;;;11.27;3.80;;;23.60;99.90;;;;;;5122660;28;20186;-82
2023/06/06 10:23:01;;;;;;;6.47;3.07;;;23.60;99.90;;;;;;5123118;28;20251;-81
2023/06/06 10:25:27;;;;;;;3.80;3.00;;;23.80;99.90;;;;;;5121978;28;20171;-82
2023/06/06 10:28:32;;;;;;;3.20;2.53;;;23.70;99.90;;;;;;5121711;28;20195;-81
2023/06/06 10:31:04;;;;;;;7.93;3.23;;;24.00;99.90;;;;;;5123550;28;20172;-82
2023/06/06 10:33:56;;;;;;;3.20;2.90;;;24.60;99.90;;;;;;5123591;28;20276;-82
2023/06/06 10:36:22;;;;;;;4.87;3.10;;;25.00;99.90;;;;;;5127083;28;20248;-82
2023/06/06 10:39:19;;;;;;;4.70;2.97;;;25.30;99.90;;;;;;5125802;28;20215;-82
2023/06/06 10:42:10;;;;;;;5.47;3.00;;;25.50;99.90;;;;;;5125848;28;20232;-84
2023/06/06 10:44:54;;;;;;;10.83;3.43;;;25.70;99.90;;;;;;5115649;28;20199;-82
2023/06/06 10:47:23;;;;;;;10.20;3.40;;;25.90;98.60;;;;;;5121823;28;20191;-82
2023/06/06 10:50:08;;;;;;;2.73;2.53;;;25.90;98.20;;;;;;5121624;28;20205;-82
2023/06/06 10:52:59;;;;;;;3.33;2.73;;;26.10;99.90;;;;;;5123215;28;20627;-82
2023/06/06 10:55:25;;;;;;;5.53;3.20;;;;;;;;;;5120796;28;20541;-82
2023/06/06 10:58:18;;;;;;;4.90;3.10;;;25.80;99.90;;;;;;5120346;28;20305;-82
2023/06/06 11:00:49;;;;;;;4.03;2.50;;;26.00;98.50;;;;;;5110735;28;20283;-82
2023/06/06 11:03:40;;;;;;;4.10;3.30;;;26.10;99.80;;;;;;5123154;28;20201;-82
2023/06/06 11:06:11;;;;;;;5.50;2.77;;;26.10;95.80;;;;;;5122932;28;20177;-82
2023/06/06 11:08:37;;;;;;;3.33;2.53;;;25.90;96.00;;;;;;5123446;28;20209;-84
2023/06/06 11:11:15;;;;;;;2.73;2.47;;;26.00;95.20;;;;;;5123654;28;20182;-82
2023/06/06 11:13:53;;;;;;;2.40;2.20;;;26.20;95.00;;;;;;5122201;28;20443;-82
2023/06/06 11:16:37;;;;;;;3.47;2.43;;;26.40;97.70;;;;;;5122543;28;20175;-82
2023/06/06 11:19:06;;;;;;;4.13;2.77;;;26.80;96.90;;;;;;5122806;28;20195;-84
2023/06/06 11:21:35;;;;;;;3.77;2.87;;;27.00;97.50;;;;;;5120877;28;20176;-83
2023/06/06 11:24:02;;;;;;;5.67;2.77;;;27.30;90.30;;;;;;5120862;28;20203;-82
2023/06/06 11:26:28;;;;;;;5.90;2.50;;;27.60;96.90;;;;;;5120576;28;20192;-81
2023/06/06 11:28:58;;;;;;;10.30;2.50;;;27.70;91.30;;;;;;5122291;28;20544;-81
2023/06/06 11:31:24;;;;;;;5.30;2.40;;;27.40;90.00;;;;;;5124430;28;20173;-82
2023/06/06 11:33:51;;;;;;;3.00;2.30;;;27.50;88.60;;;;;;5124721;28;20174;-82
2023/06/06 11:36:18;;;;;;;4.97;2.70;;;27.60;84.90;;;;;;5123767;28;20199;-82
2023/06/06 11:38:44;;;;;;;4.97;2.83;;;27.70;83.10;;;;;;5129348;28;20197;-82
2023/06/06 11:41:10;;;;;;;6.37;2.57;;;27.90;84.20;;;;;;5124380;28;20180;-83
2023/06/06 11:43:36;;;;;;;5.20;2.73;;;28.20;87.10;;;;;;5123166;28;20219;-82
2023/06/06 11:46:03;;;;;;;5.57;2.87;;;28.20;90.60;;;;;;5123665;28;20679;-82
2023/06/06 11:48:29;;;;;;;3.03;2.73;;;28.50;87.70;;;;;;5122998;28;20327;-80
2023/06/06 11:50:54;;;;;;;3.33;2.60;;;28.80;81.40;;;;;;5122413;28;20599;-81
2023/06/06 11:53:30;;;;;;;7.10;2.97;;;28.80;83.70;;;;;;5121798;28;20178;-81
2023/06/06 11:55:56;;;;;;;4.20;2.93;;;29.20;81.90;;;;;;5123373;28;20206;-81
2023/06/06 11:58:24;;;;;;;3.97;2.40;;;29.60;81.10;;;;;;5123345;28;20195;-80
2023/06/06 12:00:55;;;;;;;4.20;2.70;;;29.80;78.80;;;;;;5122324;28;20178;-81
2023/06/06 12:03:21;;;;;;;4.43;2.87;;;29.80;82.40;;;;;;5121768;28;20687;-81
2023/06/06 12:06:01;;;;;;;3.23;2.57;;;30.10;74.10;;;;;;5121908;28;20263;-80
2023/06/06 12:08:30;;;;;;;2.93;2.50;;;29.00;74.90;;;;;;5123731;28;20226;-81
2023/06/06 12:10:56;;;;;;;3.30;2.63;;;28.00;69.60;;;;;;5123674;28;20168;-81
2023/06/06 12:13:32;;;;;;;4.67;2.97;;;26.50;79.30;;;;;;5123938;28;20192;-80
2023/06/06 12:15:58;;;;;;;8.37;2.73;;;26.20;82.90;;;;;;5122742;28;20731;-80
2023/06/06 12:18:24;;;;;;;5.67;2.70;;;27.40;88.90;;;;;;5122661;28;20243;-81
2023/06/06 12:20:50;;;;;;;3.77;2.43;;;28.60;78.20;;;;;;5122666;28;20177;-80
2023/06/06 12:23:29;;;;;;;5.07;2.37;;;28.70;76.60;;;;;;5119760;28;20274;-80
2023/06/06 12:25:57;;;;;;;5.10;2.80;;;27.30;74.30;;;;;;5123587;28;20154;-81
2023/06/06 12:28:26;;;;;;;4.17;2.53;;;25.90;79.00;;;;;;5122939;28;20368;-81
2023/06/06 12:30:52;;;;;;;3.17;2.87;;;24.70;77.70;;;;;;5121880;28;20176;-81
2023/06/06 12:33:19;;;;;;;6.10;2.90;;;25.20;89.40;;;;;;5122094;28;20241;-80
2023/06/06 12:35:45;;;;;;;4.00;2.90;;;26.50;86.90;;;;;;5122401;28;20183;-80
2023/06/06 12:38:21;;;;;;;3.77;2.53;;;27.80;83.00;;;;;;5122619;28;20199;-80
2023/06/06 12:40:55;;;;;;;2.90;2.57;;;28.60;82.10;;;;;;5121253;28;20179;-81
2023/06/06 12:43:21;;;;;;;6.57;3.20;;;28.90;68.90;;;;;;5120920;28;20209;-81
2023/06/06 12:45:46;;;;;;;4.20;2.23;;;28.90;75.60;;;;;;5120831;28;20176;-81
2023/06/06 12:48:12;;;;;;;5.60;2.77;;;29.10;75.10;;;;;;5123200;28;20191;-81
2023/06/06 12:50:40;;;;;;;7.37;3.03;;;28.20;75.00;;;;;;5122078;28;20170;-81
2023/06/06 12:53:07;;;;;;;6.70;2.63;;;27.60;72.60;;;;;;5123610;28;20178;-81
2023/06/06 12:55:33;;;;;;;6.30;2.90;;;27.70;71.90;;;;;;5124639;28;20177;-82
2023/06/06 12:57:59;;;;;;;5.30;2.63;;;28.90;72.30;;;;;;5123284;28;20721;-84
2023/06/06 13:00:24;;;;;;;4.17;2.63;;;28.80;70.50;;;;;;5122783;28;20181;-83
2023/06/06 13:02:50;;;;;;;4.30;2.30;;;28.80;75.40;;;;;;5124839;28;20205;-83
2023/06/06 13:05:16;;;;;;;5.80;2.77;;;29.40;74.10;;;;;;5124150;28;20178;-85
2023/06/06 13:07:42;;;;;;;4.93;2.60;;;29.80;73.40;;;;;;5121507;28;20202;-85
2023/06/06 13:10:08;;;;;;;4.73;2.60;;;28.50;70.00;;;;;;5120924;28;20167;-84
2023/06/06 13:12:42;;;;;;;6.20;3.17;;;28.00;75.00;;;;;;5125849;28;20160;-85
2023/06/06 13:15:09;;;;;;;3.73;3.30;;;27.20;67.20;;;;;;5126648;28;20182;-83
2023/06/06 13:17:35;;;;;;;6.53;3.10;;;26.50;70.10;;;;;;5123687;28;20194;-83
2023/06/06 13:20:02;;;;;;;4.00;2.50;;;26.90;76.40;;;;;;5128151;28;20177;-83
2023/06/06 13:22:27;;;;;;;3.30;2.87;;;26.90;74.00;;;;;;5122805;28;20206;-82
2023/06/06 13:24:53;;;;;;;9.23;2.90;;;27.20;70.20;;;;;;5123538;28;20289;-83
2023/06/06 13:27:21;;;;;;;3.70;3.17;;;26.80;72.90;;;;;;5123623;28;20230;-82
2023/06/06 13:29:47;;;;;;;4.27;2.63;;;25.90;71.60;;;;;;5122947;28;20172;-82
2023/06/06 13:32:13;;;;;;;4.23;2.80;;;25.10;72.80;;;;;;5124429;28;20171;-84
2023/06/06 13:34:39;;;;;;;3.80;2.80;;;25.00;78.70;;;;;;5123863;28;20509;-84
2023/06/06 13:37:05;;;;;;;3.83;2.33;;;25.90;76.20;;;;;;5122412;28;20203;-84
2023/06/06 13:39:31;;;;;;;5.70;2.93;;;26.80;75.30;;;;;;5124020;28;20168;-83
2023/06/06 13:41:57;;;;;;;4.20;2.37;;;27.70;78.80;;;;;;5123564;28;20169;-84
2023/06/06 13:44:22;;;;;;;3.90;2.80;;;27.90;68.20;;;;;;5125064;28;20632;-83
2023/06/06 13:46:49;;;;;;;5.23;2.60;;;27.50;66.90;;;;;;5126305;28;20173;-83
2023/06/06 13:49:18;;;;;;;3.00;2.70;;;27.50;68.30;;;;;;5125528;28;20279;-84
2023/06/06 13:51:44;;;;;;;6.27;2.67;;;27.50;73.60;;;;;;5124475;28;20178;-83
2023/06/06 13:54:11;;;;;;;3.20;2.77;;;27.70;71.10;;;;;;5124553;28;20182;-84
2023/06/06 13:56:38;;;;;;;4.73;2.87;;;27.70;69.70;;;;;;5124087;28;20186;-84
2023/06/06 13:59:04;;;;;;;3.03;2.60;;;27.70;68.00;;;;;;5125494;28;20194;-83
2023/06/06 14:01:30;;;;;;;5.50;2.57;;;27.60;68.10;;;;;;5123680;28;20183;-83
2023/06/06 14:03:56;;;;;;;2.90;2.60;;;28.00;73.80;;;;;;5126453;28;20744;-84
2023/06/06 14:06:22;;;;;;;6.17;2.40;;;27.60;70.20;;;;;;5126758;28;20168;-84
2023/06/06 14:08:49;;;;;;;5.40;2.50;;;26.90;65.50;;;;;;5126048;28;20209;-84
2023/06/06 14:11:15;;;;;;;5.80;2.80;;;26.80;71.10;;;;;;5124681;28;20166;-83
2023/06/06 14:13:41;;;;;;;4.00;2.53;;;26.80;71.90;;;;;;5125554;28;20199;-84
2023/06/06 14:16:07;;;;;;;6.70;3.23;;;26.20;68.80;;;;;;5123403;28;20180;-84
2023/06/06 14:18:34;;;;;;;4.33;2.93;;;25.90;70.90;;;;;;5123522;28;20267;-83
2023/06/06 14:23:48;;;;;;;4.10;2.63;;;25.50;77.30;;;;;;5124013;28;20201;-85
2023/06/06 14:26:17;;;;;;;7.47;2.90;;;26.20;71.80;;;;;;5122616;28;20651;-84
2023/06/06 14:28:43;;;;;;;7.37;2.97;;;26.40;72.20;;;;;;5123236;28;20571;-84
2023/06/06 14:31:09;;;;;;;5.07;2.80;;;26.30;74.30;;;;;;5123821;28;20197;-84
2023/06/06 14:33:36;;;;;;;5.90;3.00;;;26.50;72.00;;;;;;5122606;28;20263;-84
2023/06/06 14:36:01;;;;;;;6.63;3.07;;;26.60;72.30;;;;;;5122578;28;20634;-84
2023/06/06 14:38:31;;;;;;;4.27;2.50;;;25.90;74.00;;;;;;5123492;28;20226;-83
2023/06/06 14:40:59;;;;;;;6.23;3.10;;;;;;;;;;5123618;28;20175;-84
2023/06/06 14:43:25;;;;;;;3.33;2.63;;;25.40;69.40;;;;;;5123530;28;20650;-83
2023/06/06 14:45:51;;;;;;;3.40;2.70;;;25.00;71.00;;;;;;5124292;28;20207;-84
2023/06/06 14:48:17;;;;;;;2.90;2.60;;;25.20;75.00;;;;;;5127987;28;20175;-83
2023/06/06 14:50:42;;;;;;;3.70;2.87;;;25.80;80.10;;;;;;5124499;28;20683;-84
2023/06/06 14:53:08;;;;;;;3.23;2.73;;;26.60;77.80;;;;;;5123467;28;20179;-83
2023/06/06 14:55:34;;;;;;;5.80;3.17;;;27.00;70.70;;;;;;5123598;28;20195;-84
2023/06/06 14:58:02;;;;;;;6.40;2.70;;;27.40;65.40;;;;;;5123274;28;20207;-84
2023/06/06 15:00:27;;;;;;;3.07;2.77;;;27.50;68.80;;;;;;5121331;28;20609;-84
2023/06/06 15:02:53;;;;;;;5.40;2.73;;;27.50;70.50;;;;;;5123627;28;20195;-84
2023/06/06 15:05:20;;;;;;;5.77;3.27;;;27.60;71.20;;;;;;5126028;28;20172;-83
2023/06/06 15:07:45;;;;;;;6.30;2.90;;;27.50;68.20;;;;;;5126393;28;20195;-85
2023/06/06 15:10:12;;;;;;;3.13;2.63;;;27.10;66.30;;;;;;5127298;28;20221;-84
2023/06/06 15:12:38;;;;;;;4.23;2.50;;;26.60;72.80;;;;;;5125444;28;20204;-84
2023/06/06 15:15:04;;;;;;;4.23;2.77;;;26.70;70.00;;;;;;5129108;28;20182;-85
2023/06/06 15:17:30;;;;;;;3.43;2.60;;;27.10;66.20;;;;;;5127324;28;20276;-84
2023/06/06 15:19:56;;;;;;;6.30;2.80;;;27.10;65.90;;;;;;5128563;28;20229;-84
2023/06/06 15:22:23;;;;;;;3.97;2.87;;;26.50;65.80;;;;;;5130678;28;20623;-84
2023/06/06 15:24:51;;;;;;;4.80;2.97;;;25.60;69.70;;;;;;5126777;28;20203;-84
2023/06/06 15:27:17;;;;;;;3.93;2.50;;;24.80;71.40;;;;;;5127390;28;20657;-85
2023/06/06 15:29:46;;;;;;;3.57;3.13;;;24.60;69.80;;;;;;5129612;28;20263;-85
2023/06/06 15:32:12;;;;;;;3.40;2.90;;;24.90;70.40;;;;;;5128891;28;20721;-85
2023/06/06 15:34:38;;;;;;;2.87;2.57;;;25.30;70.40;;;;;;5128101;28;20171;-85
2023/06/06 15:37:05;;;;;;;2.97;2.67;;;25.60;71.90;;;;;;5126790;28;20184;-85
2023/06/06 15:39:30;;;;;;;2.73;2.53;;;26.00;73.80;;;;;;5126447;28;20262;-85
2023/06/06 15:41:56;;;;;;;3.40;2.50;;;26.00;67.70;;;;;;5126409;28;20178;-85
2023/06/06 15:44:22;;;;;;;4.80;2.70;;;25.70;69.60;;;;;;5127249;28;20194;-85
2023/06/06 15:46:47;;;;;;;3.37;3.07;;;25.90;69.40;;;;;;5125342;28;20174;-85
2023/06/06 15:49:13;;;;;;;4.10;2.83;;;25.90;70.00;;;;;;5125474;28;20361;-85
2023/06/06 15:51:40;;;;;;;4.63;2.60;;;25.90;70.00;;;;;;5124194;28;20175;-85
2023/06/06 15:54:06;;;;;;;6.03;2.70;;;25.70;69.50;;;;;;5125740;28;20174;-85
2023/06/06 15:56:32;;;;;;;2.63;2.13;;;25.20;72.40;;;;;;5125058;28;20187;-84
2023/06/06 15:58:58;;;;;;;3.63;2.87;;;24.90;71.20;;;;;;5125986;28;20198;-84
2023/06/06 16:01:28;;;;;;;4.53;2.43;;;24.30;74.70;;;;;;5123938;28;20268;-84
2023/06/06 16:03:54;;;;;;;5.27;2.53;;;24.00;77.10;;;;;;5124352;28;20270;-83
2023/06/06 16:06:21;;;;;;;4.90;2.70;;;24.10;79.10;;;;;;5122676;28;20263;-86
2023/06/06 16:08:46;;;;;;;3.80;2.60;;;24.10;76.40;;;;;;5121701;28;20538;-85
2023/06/06 16:11:13;;;;;;;2.60;2.20;;;24.30;75.50;;;;;;5120474;28;20212;-79
2023/06/06 16:13:39;;;;;;;3.27;2.30;;;23.80;77.80;;;;;;5120789;28;20176;-81
2023/06/06 16:16:05;;;;;;;5.20;2.90;;;23.30;80.00;;;;;;5118781;28;20221;-81
2023/06/06 16:18:30;;;;;;;2.87;2.40;;;22.80;77.60;;;;;;5119558;28;20213;-81
2023/06/06 16:20:56;;;;;;;2.90;2.53;;;22.20;79.80;;;;;;5121555;28;20197;-81
2023/06/06 16:23:22;;;;;;;4.40;2.70;;;21.80;84.00;;;;;;5123110;28;20239;-79
2023/06/06 16:25:48;;;;;;;7.73;2.57;;;21.50;83.30;;;;;;5121151;28;20163;-79
2023/06/06 16:28:14;;;;;;;3.33;2.20;;;21.20;84.60;;;;;;5117443;28;20210;-77
2023/06/06 16:30:40;;;;;;;3.70;2.60;;;21.00;86.60;;;;;;5117005;28;20168;-77
2023/06/06 16:33:05;;;;;;;5.53;2.77;;;20.80;86.40;;;;;;5116361;28;20175;-78
2023/06/06 16:35:31;;;;;;;5.43;2.90;;;20.70;88.70;;;;;;5118503;28;20179;-79
2023/06/06 16:37:57;;;;;;;3.80;2.33;;;20.70;88.60;;;;;;5122189;28;20199;-79
2023/06/06 16:40:23;;;;;;;5.87;3.47;;;20.70;87.00;;;;;;5123433;28;20190;-85
2023/06/06 16:42:48;;;;;;;5.03;3.17;;;20.80;88.60;;;;;;5124217;28;20219;-84
2023/06/06 16:45:14;;;;;;;5.00;2.60;;;20.80;88.60;;;;;;5123644;28;20186;-84
2023/06/06 16:47:42;;;;;;;2.70;2.47;;;20.80;89.10;;;;;;5125470;28;20193;-82
2023/06/06 16:50:08;;;;;;;4.00;2.30;;;20.90;87.90;;;;;;5125576;28;20574;-83
2023/06/06 16:52:34;;;;;;;4.20;2.47;;;21.00;88.50;;;;;;5124937;28;20184;-85
2023/06/06 16:57:55;;;;;;;2.70;2.20;;;21.10;87.10;;;;;;5123094;27;20285;-84
2023/06/06 17:02:28;;;;;;;3.33;2.33;;;22.00;89.00;;;;;;5142900;27;20271;-81
2023/06/06 17:04:56;;;;;;;3.73;2.10;;;21.00;87.40;;;;;;5119975;28;20250;-84
2023/06/06 17:07:22;;;;;;;7.53;2.53;;;20.80;88.00;;;;;;5141027;28;20206;-84
2023/06/06 17:10:53;;;;;;;2.80;1.93;;;20.70;88.40;;;;;;5140714;27;20309;-83
2023/06/06 17:15:37;;;;;;;3.30;1.90;;;20.40;90.40;;;;;;5139702;27;20272;-82
2023/06/06 17:21:27;;;;;;;2.60;2.40;;;20.20;90.20;;;;;;5141542;27;20274;-84
2023/06/06 17:28:12;;;;;;;2.73;1.97;;;20.10;90.20;;;;;;5148649;27;20905;-83
2023/06/06 17:33:38;;;;;;;2.70;1.90;;;20.10;90.50;;;;;;5139604;27;20277;-83
2023/06/06 17:41:01;;;;;;;4.93;2.00;;;19.90;91.40;;;;;;5139772;27;20269;-84
2023/06/06 17:48:49;;;;;;;6.70;2.00;;;19.70;90.90;;;;;;5139901;27;20289;-82
2023/06/06 18:00:40;;;;;;;6.77;2.33;;;19.30;92.30;;;;;;5144624;27;20277;-82
2023/06/06 18:18:00;;;;;;;3.40;2.57;;;18.80;94.50;;;;;;5117913;27;20288;-87
